Time;durP1;ratioP1;P1;durP2;ratioP2;P2;SDS_P1;SDS_P2;PMS_P1;PMS_P2;Temp;Humidity;BMP_temperature;BMP_pressure;BME280_temperature;BME280_humidity;BME280_pressure;Samples;Min_cycle;Max_cycle;Signal;HPM_P1;HPM_P2
2019/07/04 00:00:25;;;;;;;5.95;5.45;;;;;;;15.83;66.86426;95609.08;;;;
2019/07/04 00:01:27;;;;;;;5.95;5.45;;;;;;;15.83;66.86426;95609.08;;;;
2019/07/04 00:02:28;;;;;;;5.95;5.45;;;;;;;15.83;66.86426;95609.08;;;;
2019/07/04 00:03:29;;;;;;;5.95;5.45;;;;;;;15.83;66.86426;95609.08;;;;
2019/07/04 00:04:30;;;;;;;5.95;5.45;;;;;;;15.83;66.86426;95609.08;;;;
2019/07/04 00:05:32;;;;;;;5.95;5.45;;;;;;;15.83;66.86426;95609.08;;;;
2019/07/04 00:06:33;;;;;;;5.95;5.45;;;;;;;15.83;66.86426;95609.08;;;;
2019/07/04 00:07:34;;;;;;;5.95;5.45;;;;;;;15.83;66.86426;95609.08;;;;
2019/07/04 00:08:35;;;;;;;5.95;5.45;;;;;;;15.83;66.86426;95609.08;;;;
2019/07/04 00:09:36;;;;;;;7.3;5.75;;;;;;;15.72;67.16211;95591.99;;;;
2019/07/04 00:10:37;;;;;;;7.3;5.75;;;;;;;15.72;67.16211;95591.99;;;;
2019/07/04 00:11:38;;;;;;;7.3;5.75;;;;;;;15.72;67.16211;95591.99;;;;
2019/07/04 00:12:40;;;;;;;7.3;5.75;;;;;;;15.72;67.16211;95591.99;;;;
2019/07/04 00:13:41;;;;;;;7.3;5.75;;;;;;;15.72;67.16211;95591.99;;;;
2019/07/04 00:14:42;;;;;;;7.3;5.75;;;;;;;15.72;67.16211;95591.99;;;;
2019/07/04 00:15:43;;;;;;;7.3;5.75;;;;;;;15.72;67.16211;95591.99;;;;
2019/07/04 00:16:44;;;;;;;7.3;5.75;;;;;;;15.72;67.16211;95591.99;;;;
2019/07/04 00:17:45;;;;;;;7.3;5.75;;;;;;;15.72;67.16211;95591.99;;;;
2019/07/04 00:18:46;;;;;;;7.3;5.75;;;;;;;15.72;67.16211;95591.99;;;;
2019/07/04 00:19:47;;;;;;;7.3;5.75;;;;;;;15.72;67.16211;95591.99;;;;
2019/07/04 00:20:48;;;;;;;6.349999;5.749999;;;;;;;15.43;67.50781;95604.66;;;;
2019/07/04 00:21:49;;;;;;;6.349999;5.749999;;;;;;;15.43;67.50781;95604.66;;;;
2019/07/04 00:22:51;;;;;;;6.349999;5.749999;;;;;;;15.43;67.50781;95604.66;;;;
2019/07/04 00:23:52;;;;;;;6.349999;5.749999;;;;;;;15.43;67.50781;95604.66;;;;
2019/07/04 00:24:53;;;;;;;6.349999;5.749999;;;;;;;15.43;67.50781;95604.66;;;;
2019/07/04 00:25:54;;;;;;;6.349999;5.749999;;;;;;;15.43;67.50781;95604.66;;;;
2019/07/04 00:26:55;;;;;;;6.349999;5.749999;;;;;;;15.43;67.50781;95604.66;;;;
2019/07/04 00:27:56;;;;;;;6.349999;5.749999;;;;;;;15.43;67.50781;95604.66;;;;
2019/07/04 00:28:57;;;;;;;6.349999;5.749999;;;;;;;15.43;67.50781;95604.66;;;;
2019/07/04 00:29:58;;;;;;;6.349999;5.749999;;;;;;;15.43;67.50781;95604.66;;;;
2019/07/04 00:30:59;;;;;;;6;5.5;;;;;;;15.2;68.08008;95610.77;;;;
2019/07/04 00:32:00;;;;;;;6;5.5;;;;;;;15.2;68.08008;95610.77;;;;
2019/07/04 00:33:01;;;;;;;6;5.5;;;;;;;15.2;68.08008;95610.77;;;;
2019/07/04 00:34:03;;;;;;;6;5.5;;;;;;;15.2;68.08008;95610.77;;;;
2019/07/04 00:35:04;;;;;;;6;5.5;;;;;;;15.2;68.08008;95610.77;;;;
2019/07/04 00:36:05;;;;;;;6;5.5;;;;;;;15.2;68.08008;95610.77;;;;
2019/07/04 00:37:06;;;;;;;6;5.5;;;;;;;15.2;68.08008;95610.77;;;;
2019/07/04 00:38:07;;;;;;;6;5.5;;;;;;;15.2;68.08008;95610.77;;;;
2019/07/04 00:39:08;;;;;;;6;5.5;;;;;;;15.2;68.08008;95610.77;;;;
2019/07/04 00:40:09;;;;;;;6;5.5;;;;;;;15.2;68.08008;95610.77;;;;
2019/07/04 00:41:11;;;;;;;6.249999;5.25;;;;;;;14.97;68.60645;95614.73;;;;
2019/07/04 00:42:13;;;;;;;6.249999;5.25;;;;;;;14.97;68.60645;95614.73;;;;
2019/07/04 00:43:14;;;;;;;6.249999;5.25;;;;;;;14.97;68.60645;95614.73;;;;
2019/07/04 00:44:15;;;;;;;6.249999;5.25;;;;;;;14.97;68.60645;95614.73;;;;
2019/07/04 00:45:16;;;;;;;6.249999;5.25;;;;;;;14.97;68.60645;95614.73;;;;
2019/07/04 00:46:17;;;;;;;6.249999;5.25;;;;;;;14.97;68.60645;95614.73;;;;
2019/07/04 00:47:19;;;;;;;6.249999;5.25;;;;;;;14.97;68.60645;95614.73;;;;
2019/07/04 00:48:20;;;;;;;6.249999;5.25;;;;;;;14.97;68.60645;95614.73;;;;
2019/07/04 00:49:21;;;;;;;6.249999;5.25;;;;;;;14.97;68.60645;95614.73;;;;
2019/07/04 00:50:22;;;;;;;6.249999;5.25;;;;;;;14.97;68.60645;95614.73;;;;
2019/07/04 00:51:24;;;;;;;6.249999;5.25;;;;;;;14.97;68.60645;95614.73;;;;
2019/07/04 00:52:25;;;;;;;5.349999;4.849999;;;;;;;14.69;68.87793;95607.64;;;;
2019/07/04 00:53:26;;;;;;;5.349999;4.849999;;;;;;;14.69;68.87793;95607.64;;;;
2019/07/04 00:54:27;;;;;;;5.349999;4.849999;;;;;;;14.69;68.87793;95607.64;;;;
2019/07/04 00:55:28;;;;;;;5.349999;4.849999;;;;;;;14.69;68.87793;95607.64;;;;
2019/07/04 00:56:29;;;;;;;5.349999;4.849999;;;;;;;14.69;68.87793;95607.64;;;;
2019/07/04 00:57:30;;;;;;;5.349999;4.849999;;;;;;;14.69;68.87793;95607.64;;;;
2019/07/04 00:58:31;;;;;;;5.349999;4.849999;;;;;;;14.69;68.87793;95607.64;;;;
2019/07/04 00:59:32;;;;;;;5.349999;4.849999;;;;;;;14.69;68.87793;95607.64;;;;
2019/07/04 01:00:33;;;;;;;5.349999;4.849999;;;;;;;14.69;68.87793;95607.64;;;;
2019/07/04 01:01:35;;;;;;;5.349999;4.849999;;;;;;;14.69;68.87793;95607.64;;;;
2019/07/04 01:02:36;;;;;;;5.8;4.699999;;;;;;;14.28;69.29004;95602.2;;;;
2019/07/04 01:03:37;;;;;;;5.8;4.699999;;;;;;;14.28;69.29004;95602.2;;;;
2019/07/04 01:04:38;;;;;;;5.8;4.699999;;;;;;;14.28;69.29004;95602.2;;;;
2019/07/04 01:05:39;;;;;;;5.8;4.699999;;;;;;;14.28;69.29004;95602.2;;;;
2019/07/04 01:06:41;;;;;;;5.8;4.699999;;;;;;;14.28;69.29004;95602.2;;;;
2019/07/04 01:07:42;;;;;;;5.8;4.699999;;;;;;;14.28;69.29004;95602.2;;;;
2019/07/04 01:08:44;;;;;;;5.8;4.699999;;;;;;;14.28;69.29004;95602.2;;;;
2019/07/04 01:09:45;;;;;;;5.8;4.699999;;;;;;;14.28;69.29004;95602.2;;;;
2019/07/04 01:10:46;;;;;;;5.8;4.699999;;;;;;;14.28;69.29004;95602.2;;;;
2019/07/04 01:11:47;;;;;;;5.8;4.699999;;;;;;;14.28;69.29004;95602.2;;;;
2019/07/04 01:12:49;;;;;;;5.8;4.699999;;;;;;;14.28;69.29004;95602.2;;;;
2019/07/04 01:13:50;;;;;;;5.55;4.950001;;;;;;;13.98;69.77051;95595.89;;;;
2019/07/04 01:14:51;;;;;;;5.55;4.950001;;;;;;;13.98;69.77051;95595.89;;;;
2019/07/04 01:15:52;;;;;;;5.55;4.950001;;;;;;;13.98;69.77051;95595.89;;;;
2019/07/04 01:16:53;;;;;;;5.55;4.950001;;;;;;;13.98;69.77051;95595.89;;;;
2019/07/04 01:17:55;;;;;;;5.55;4.950001;;;;;;;13.98;69.77051;95595.89;;;;
2019/07/04 01:18:56;;;;;;;5.55;4.950001;;;;;;;13.98;69.77051;95595.89;;;;
2019/07/04 01:19:57;;;;;;;5.55;4.950001;;;;;;;13.98;69.77051;95595.89;;;;
2019/07/04 01:20:58;;;;;;;5.55;4.950001;;;;;;;13.98;69.77051;95595.89;;;;
2019/07/04 01:21:59;;;;;;;5.55;4.950001;;;;;;;13.98;69.77051;95595.89;;;;
2019/07/04 01:23:00;;;;;;;5.55;4.950001;;;;;;;13.98;69.77051;95595.89;;;;
2019/07/04 01:24:02;;;;;;;5.5;5;;;;;;;13.69;70.37207;95604.82;;;;
2019/07/04 01:25:03;;;;;;;5.5;5;;;;;;;13.69;70.37207;95604.82;;;;
2019/07/04 01:26:05;;;;;;;5.5;5;;;;;;;13.69;70.37207;95604.82;;;;
2019/07/04 01:27:06;;;;;;;5.5;5;;;;;;;13.69;70.37207;95604.82;;;;
2019/07/04 01:28:07;;;;;;;5.5;5;;;;;;;13.69;70.37207;95604.82;;;;
2019/07/04 01:29:08;;;;;;;5.5;5;;;;;;;13.69;70.37207;95604.82;;;;
2019/07/04 01:30:09;;;;;;;5.5;5;;;;;;;13.69;70.37207;95604.82;;;;
2019/07/04 01:31:13;;;;;;;5.5;5;;;;;;;13.69;70.37207;95604.82;;;;
2019/07/04 01:32:14;;;;;;;5.5;5;;;;;;;13.69;70.37207;95604.82;;;;
2019/07/04 01:33:15;;;;;;;5.5;5;;;;;;;13.69;70.37207;95604.82;;;;
2019/07/04 01:34:16;;;;;;;5.55;5.05;;;;;;;13.48;71.04102;95603.13;;;;
2019/07/04 01:35:17;;;;;;;5.55;5.05;;;;;;;13.48;71.04102;95603.13;;;;
2019/07/04 01:36:18;;;;;;;5.55;5.05;;;;;;;13.48;71.04102;95603.13;;;;
2019/07/04 01:37:20;;;;;;;5.55;5.05;;;;;;;13.48;71.04102;95603.13;;;;
2019/07/04 01:38:21;;;;;;;5.55;5.05;;;;;;;13.48;71.04102;95603.13;;;;
2019/07/04 01:39:22;;;;;;;5.55;5.05;;;;;;;13.48;71.04102;95603.13;;;;
2019/07/04 01:40:23;;;;;;;5.55;5.05;;;;;;;13.48;71.04102;95603.13;;;;
2019/07/04 01:41:24;;;;;;;5.55;5.05;;;;;;;13.48;71.04102;95603.13;;;;
2019/07/04 01:42:25;;;;;;;5.55;5.05;;;;;;;13.48;71.04102;95603.13;;;;
2019/07/04 01:43:27;;;;;;;5.55;5.05;;;;;;;13.48;71.04102;95603.13;;;;
2019/07/04 01:44:28;;;;;;;5.55;5.05;;;;;;;13.48;71.04102;95603.13;;;;
2019/07/04 01:45:29;;;;;;;6.55;5.849999;;;;;;;13.23;71.79785;95606.34;;;;
2019/07/04 01:46:30;;;;;;;6.55;5.849999;;;;;;;13.23;71.79785;95606.34;;;;
2019/07/04 01:47:31;;;;;;;6.55;5.849999;;;;;;;13.23;71.79785;95606.34;;;;
2019/07/04 01:48:32;;;;;;;6.55;5.849999;;;;;;;13.23;71.79785;95606.34;;;;
2019/07/04 01:49:33;;;;;;;6.55;5.849999;;;;;;;13.23;71.79785;95606.34;;;;
2019/07/04 01:50:35;;;;;;;6.55;5.849999;;;;;;;13.23;71.79785;95606.34;;;;
2019/07/04 01:51:36;;;;;;;6.55;5.849999;;;;;;;13.23;71.79785;95606.34;;;;
2019/07/04 01:52:37;;;;;;;6.55;5.849999;;;;;;;13.23;71.79785;95606.34;;;;
2019/07/04 01:53:38;;;;;;;6.55;5.849999;;;;;;;13.23;71.79785;95606.34;;;;
2019/07/04 01:54:39;;;;;;;6.55;5.849999;;;;;;;13.23;71.79785;95606.34;;;;
2019/07/04 01:55:40;;;;;;;5.849999;5.199999;;;;;;;13.07;72.87988;95595.87;;;;
2019/07/04 01:56:41;;;;;;;5.849999;5.199999;;;;;;;13.07;72.87988;95595.87;;;;
2019/07/04 01:57:43;;;;;;;5.849999;5.199999;;;;;;;13.07;72.87988;95595.87;;;;
2019/07/04 01:58:44;;;;;;;5.849999;5.199999;;;;;;;13.07;72.87988;95595.87;;;;
2019/07/04 01:59:45;;;;;;;5.849999;5.199999;;;;;;;13.07;72.87988;95595.87;;;;
2019/07/04 02:00:46;;;;;;;5.849999;5.199999;;;;;;;13.07;72.87988;95595.87;;;;
2019/07/04 02:01:48;;;;;;;5.849999;5.199999;;;;;;;13.07;72.87988;95595.87;;;;
2019/07/04 02:02:49;;;;;;;5.849999;5.199999;;;;;;;13.07;72.87988;95595.87;;;;
2019/07/04 02:03:50;;;;;;;5.849999;5.199999;;;;;;;13.07;72.87988;95595.87;;;;
2019/07/04 02:04:52;;;;;;;5.849999;5.199999;;;;;;;13.07;72.87988;95595.87;;;;
2019/07/04 02:05:53;;;;;;;6.299999;5.749999;;;;;;;12.83;73.63574;95609.2;;;;
2019/07/04 02:06:54;;;;;;;6.299999;5.749999;;;;;;;12.83;73.63574;95609.2;;;;
2019/07/04 02:07:55;;;;;;;6.299999;5.749999;;;;;;;12.83;73.63574;95609.2;;;;
2019/07/04 02:08:56;;;;;;;6.299999;5.749999;;;;;;;12.83;73.63574;95609.2;;;;
2019/07/04 02:09:57;;;;;;;6.299999;5.749999;;;;;;;12.83;73.63574;95609.2;;;;
2019/07/04 02:10:58;;;;;;;6.299999;5.749999;;;;;;;12.83;73.63574;95609.2;;;;
2019/07/04 02:12:00;;;;;;;6.299999;5.749999;;;;;;;12.83;73.63574;95609.2;;;;
2019/07/04 02:13:01;;;;;;;6.299999;5.749999;;;;;;;12.83;73.63574;95609.2;;;;
2019/07/04 02:14:02;;;;;;;6.299999;5.749999;;;;;;;12.83;73.63574;95609.2;;;;
2019/07/04 02:15:03;;;;;;;6.299999;5.749999;;;;;;;12.83;73.63574;95609.2;;;;
2019/07/04 02:16:13;;;;;;;6.299999;5.749999;;;;;;;12.83;73.63574;95609.2;;;;
2019/07/04 02:17:14;;;;;;;5.5;5.000001;;;;;;;12.66;74.45898;95615.94;;;;
2019/07/04 02:18:15;;;;;;;5.5;5.000001;;;;;;;12.66;74.45898;95615.94;;;;
2019/07/04 02:19:17;;;;;;;5.5;5.000001;;;;;;;12.66;74.45898;95615.94;;;;
2019/07/04 02:20:18;;;;;;;5.5;5.000001;;;;;;;12.66;74.45898;95615.94;;;;
2019/07/04 02:21:20;;;;;;;5.5;5.000001;;;;;;;12.66;74.45898;95615.94;;;;
2019/07/04 02:22:21;;;;;;;5.5;5.000001;;;;;;;12.66;74.45898;95615.94;;;;
2019/07/04 02:23:22;;;;;;;5.5;5.000001;;;;;;;12.66;74.45898;95615.94;;;;
2019/07/04 02:24:24;;;;;;;5.5;5.000001;;;;;;;12.66;74.45898;95615.94;;;;
2019/07/04 02:25:25;;;;;;;5.5;5.000001;;;;;;;12.66;74.45898;95615.94;;;;
2019/07/04 02:26:27;;;;;;;5.5;5.000001;;;;;;;12.66;74.45898;95615.94;;;;
2019/07/04 02:27:28;;;;;;;6.15;5;;;;;;;12.42;74.96484;95617.47;;;;
2019/07/04 02:28:29;;;;;;;6.15;5;;;;;;;12.42;74.96484;95617.47;;;;
2019/07/04 02:29:30;;;;;;;6.15;5;;;;;;;12.42;74.96484;95617.47;;;;
2019/07/04 02:30:31;;;;;;;6.15;5;;;;;;;12.42;74.96484;95617.47;;;;
2019/07/04 02:31:33;;;;;;;6.15;5;;;;;;;12.42;74.96484;95617.47;;;;
2019/07/04 02:32:35;;;;;;;6.15;5;;;;;;;12.42;74.96484;95617.47;;;;
2019/07/04 02:33:36;;;;;;;6.15;5;;;;;;;12.42;74.96484;95617.47;;;;
2019/07/04 02:34:37;;;;;;;6.15;5;;;;;;;12.42;74.96484;95617.47;;;;
2019/07/04 02:35:38;;;;;;;6.15;5;;;;;;;12.42;74.96484;95617.47;;;;
2019/07/04 02:36:40;;;;;;;6.15;5;;;;;;;12.42;74.96484;95617.47;;;;
2019/07/04 02:37:41;;;;;;;5.750001;5.25;;;;;;;12.28;75.47754;95618.38;;;;
2019/07/04 02:38:42;;;;;;;5.750001;5.25;;;;;;;12.28;75.47754;95618.38;;;;
2019/07/04 02:39:43;;;;;;;5.750001;5.25;;;;;;;12.28;75.47754;95618.38;;;;
2019/07/04 02:40:44;;;;;;;5.750001;5.25;;;;;;;12.28;75.47754;95618.38;;;;
2019/07/04 02:41:45;;;;;;;5.750001;5.25;;;;;;;12.28;75.47754;95618.38;;;;
2019/07/04 02:42:46;;;;;;;5.750001;5.25;;;;;;;12.28;75.47754;95618.38;;;;
2019/07/04 02:43:48;;;;;;;5.750001;5.25;;;;;;;12.28;75.47754;95618.38;;;;
2019/07/04 02:44:49;;;;;;;5.750001;5.25;;;;;;;12.28;75.47754;95618.38;;;;
2019/07/04 02:45:50;;;;;;;5.750001;5.25;;;;;;;12.28;75.47754;95618.38;;;;
2019/07/04 02:46:51;;;;;;;5.750001;5.25;;;;;;;12.28;75.47754;95618.38;;;;
2019/07/04 02:47:53;;;;;;;5.750001;5.25;;;;;;;12.28;75.47754;95618.38;;;;
2019/07/04 02:48:54;;;;;;;6.849999;5.6;;;;;;;12.1;75.91895;95610.41;;;;
2019/07/04 02:49:55;;;;;;;6.849999;5.6;;;;;;;12.1;75.91895;95610.41;;;;
2019/07/04 02:50:56;;;;;;;6.849999;5.6;;;;;;;12.1;75.91895;95610.41;;;;
2019/07/04 02:51:57;;;;;;;6.849999;5.6;;;;;;;12.1;75.91895;95610.41;;;;
2019/07/04 02:52:58;;;;;;;6.849999;5.6;;;;;;;12.1;75.91895;95610.41;;;;
2019/07/04 02:53:59;;;;;;;6.849999;5.6;;;;;;;12.1;75.91895;95610.41;;;;
2019/07/04 02:55:00;;;;;;;6.849999;5.6;;;;;;;12.1;75.91895;95610.41;;;;
2019/07/04 02:56:02;;;;;;;6.849999;5.6;;;;;;;12.1;75.91895;95610.41;;;;
2019/07/04 02:57:03;;;;;;;6.849999;5.6;;;;;;;12.1;75.91895;95610.41;;;;
2019/07/04 02:58:05;;;;;;;6.849999;5.6;;;;;;;12.1;75.91895;95610.41;;;;
2019/07/04 02:59:06;;;;;;;7.4;5.800001;;;;;;;11.98;76.45605;95607.31;;;;
2019/07/04 03:00:07;;;;;;;7.4;5.800001;;;;;;;11.98;76.45605;95607.31;;;;
2019/07/04 03:01:12;;;;;;;7.4;5.800001;;;;;;;11.98;76.45605;95607.31;;;;
2019/07/04 03:02:13;;;;;;;7.4;5.800001;;;;;;;11.98;76.45605;95607.31;;;;
2019/07/04 03:03:14;;;;;;;7.4;5.800001;;;;;;;11.98;76.45605;95607.31;;;;
2019/07/04 03:04:15;;;;;;;7.4;5.800001;;;;;;;11.98;76.45605;95607.31;;;;
2019/07/04 03:05:16;;;;;;;7.4;5.800001;;;;;;;11.98;76.45605;95607.31;;;;
2019/07/04 03:06:18;;;;;;;7.4;5.800001;;;;;;;11.98;76.45605;95607.31;;;;
2019/07/04 03:07:19;;;;;;;7.4;5.800001;;;;;;;11.98;76.45605;95607.31;;;;
2019/07/04 03:08:21;;;;;;;7.4;5.800001;;;;;;;11.98;76.45605;95607.31;;;;
2019/07/04 03:09:22;;;;;;;7.4;5.800001;;;;;;;11.98;76.45605;95607.31;;;;
2019/07/04 03:10:23;;;;;;;7.249999;6.550001;;;;;;;11.82;77.00879;95615.59;;;;
2019/07/04 03:11:24;;;;;;;7.249999;6.550001;;;;;;;11.82;77.00879;95615.59;;;;
2019/07/04 03:12:25;;;;;;;7.249999;6.550001;;;;;;;11.82;77.00879;95615.59;;;;
2019/07/04 03:13:26;;;;;;;7.249999;6.550001;;;;;;;11.82;77.00879;95615.59;;;;
2019/07/04 03:14:27;;;;;;;7.249999;6.550001;;;;;;;11.82;77.00879;95615.59;;;;
2019/07/04 03:15:28;;;;;;;7.249999;6.550001;;;;;;;11.82;77.00879;95615.59;;;;
2019/07/04 03:16:29;;;;;;;7.249999;6.550001;;;;;;;11.82;77.00879;95615.59;;;;
2019/07/04 03:17:31;;;;;;;7.249999;6.550001;;;;;;;11.82;77.00879;95615.59;;;;
2019/07/04 03:18:32;;;;;;;7.249999;6.550001;;;;;;;11.82;77.00879;95615.59;;;;
2019/07/04 03:19:33;;;;;;;7.249999;6.550001;;;;;;;11.82;77.00879;95615.59;;;;
2019/07/04 03:20:34;;;;;;;7.65;6.4;;;;;;;11.75;77.66016;95611.35;;;;
2019/07/04 03:21:35;;;;;;;7.65;6.4;;;;;;;11.75;77.66016;95611.35;;;;
2019/07/04 03:22:36;;;;;;;7.65;6.4;;;;;;;11.75;77.66016;95611.35;;;;
2019/07/04 03:23:37;;;;;;;7.65;6.4;;;;;;;11.75;77.66016;95611.35;;;;
2019/07/04 03:24:38;;;;;;;7.65;6.4;;;;;;;11.75;77.66016;95611.35;;;;
2019/07/04 03:25:39;;;;;;;7.65;6.4;;;;;;;11.75;77.66016;95611.35;;;;
2019/07/04 03:26:40;;;;;;;7.65;6.4;;;;;;;11.75;77.66016;95611.35;;;;
2019/07/04 03:27:42;;;;;;;7.65;6.4;;;;;;;11.75;77.66016;95611.35;;;;
2019/07/04 03:28:43;;;;;;;7.65;6.4;;;;;;;11.75;77.66016;95611.35;;;;
2019/07/04 03:29:44;;;;;;;7.65;6.4;;;;;;;11.75;77.66016;95611.35;;;;
2019/07/04 03:30:45;;;;;;;9.499998;6.4;;;;;;;11.64;78.17773;95614.31;;;;
2019/07/04 03:32:04;;;;;;;9.499998;6.4;;;;;;;11.64;78.17773;95614.31;;;;
2019/07/04 03:33:05;;;;;;;9.499998;6.4;;;;;;;11.64;78.17773;95614.31;;;;
2019/07/04 03:34:06;;;;;;;9.499998;6.4;;;;;;;11.64;78.17773;95614.31;;;;
2019/07/04 03:35:07;;;;;;;9.499998;6.4;;;;;;;11.64;78.17773;95614.31;;;;
2019/07/04 03:36:09;;;;;;;9.499998;6.4;;;;;;;11.64;78.17773;95614.31;;;;
2019/07/04 03:37:10;;;;;;;9.499998;6.4;;;;;;;11.64;78.17773;95614.31;;;;
2019/07/04 03:38:11;;;;;;;9.499998;6.4;;;;;;;11.64;78.17773;95614.31;;;;
2019/07/04 03:39:12;;;;;;;9.499998;6.4;;;;;;;11.64;78.17773;95614.31;;;;
2019/07/04 03:40:13;;;;;;;9.499998;6.4;;;;;;;11.64;78.17773;95614.31;;;;
2019/07/04 03:41:15;;;;;;;7.7;6.400001;;;;;;;11.65;78.68066;95616.02;;;;
2019/07/04 03:42:17;;;;;;;7.7;6.400001;;;;;;;11.65;78.68066;95616.02;;;;
2019/07/04 03:43:18;;;;;;;7.7;6.400001;;;;;;;11.65;78.68066;95616.02;;;;
2019/07/04 03:44:19;;;;;;;7.7;6.400001;;;;;;;11.65;78.68066;95616.02;;;;
2019/07/04 03:45:20;;;;;;;7.7;6.400001;;;;;;;11.65;78.68066;95616.02;;;;
2019/07/04 03:46:21;;;;;;;7.7;6.400001;;;;;;;11.65;78.68066;95616.02;;;;
2019/07/04 03:47:22;;;;;;;7.7;6.400001;;;;;;;11.65;78.68066;95616.02;;;;
2019/07/04 03:48:23;;;;;;;7.7;6.400001;;;;;;;11.65;78.68066;95616.02;;;;
2019/07/04 03:49:24;;;;;;;7.7;6.400001;;;;;;;11.65;78.68066;95616.02;;;;
2019/07/04 03:50:25;;;;;;;7.7;6.400001;;;;;;;11.65;78.68066;95616.02;;;;
2019/07/04 03:51:26;;;;;;;7.7;6.400001;;;;;;;11.65;78.68066;95616.02;;;;
2019/07/04 03:52:27;;;;;;;6.749999;6.050001;;;;;;;11.66;78.91992;95629.81;;;;
2019/07/04 03:53:29;;;;;;;6.749999;6.050001;;;;;;;11.66;78.91992;95629.81;;;;
2019/07/04 03:54:30;;;;;;;6.749999;6.050001;;;;;;;11.66;78.91992;95629.81;;;;
2019/07/04 03:55:31;;;;;;;6.749999;6.050001;;;;;;;11.66;78.91992;95629.81;;;;
2019/07/04 03:56:32;;;;;;;6.749999;6.050001;;;;;;;11.66;78.91992;95629.81;;;;
2019/07/04 03:57:33;;;;;;;6.749999;6.050001;;;;;;;11.66;78.91992;95629.81;;;;
2019/07/04 03:58:34;;;;;;;6.749999;6.050001;;;;;;;11.66;78.91992;95629.81;;;;
2019/07/04 03:59:35;;;;;;;6.749999;6.050001;;;;;;;11.66;78.91992;95629.81;;;;
2019/07/04 04:00:36;;;;;;;6.749999;6.050001;;;;;;;11.66;78.91992;95629.81;;;;
2019/07/04 04:01:37;;;;;;;6.749999;6.050001;;;;;;;11.66;78.91992;95629.81;;;;
2019/07/04 04:02:38;;;;;;;6.7;5.75;;;;;;;11.78;79.13477;95634.69;;;;
2019/07/04 04:03:39;;;;;;;6.7;5.75;;;;;;;11.78;79.13477;95634.69;;;;
2019/07/04 04:04:40;;;;;;;6.7;5.75;;;;;;;11.78;79.13477;95634.69;;;;
2019/07/04 04:05:42;;;;;;;6.7;5.75;;;;;;;11.78;79.13477;95634.69;;;;
2019/07/04 04:06:43;;;;;;;6.7;5.75;;;;;;;11.78;79.13477;95634.69;;;;
2019/07/04 04:07:44;;;;;;;6.7;5.75;;;;;;;11.78;79.13477;95634.69;;;;
2019/07/04 04:08:45;;;;;;;6.7;5.75;;;;;;;11.78;79.13477;95634.69;;;;
2019/07/04 04:09:46;;;;;;;6.7;5.75;;;;;;;11.78;79.13477;95634.69;;;;
2019/07/04 04:10:47;;;;;;;6.7;5.75;;;;;;;11.78;79.13477;95634.69;;;;
2019/07/04 04:11:48;;;;;;;6.7;5.75;;;;;;;11.78;79.13477;95634.69;;;;
2019/07/04 04:12:49;;;;;;;6.7;5.75;;;;;;;11.78;79.13477;95634.69;;;;
2019/07/04 04:13:50;;;;;;;6;5.45;;;;;;;11.88;79.30176;95631.83;;;;
2019/07/04 04:14:51;;;;;;;6;5.45;;;;;;;11.88;79.30176;95631.83;;;;
2019/07/04 04:15:52;;;;;;;6;5.45;;;;;;;11.88;79.30176;95631.83;;;;
2019/07/04 04:16:54;;;;;;;6;5.45;;;;;;;11.88;79.30176;95631.83;;;;
2019/07/04 04:17:55;;;;;;;6;5.45;;;;;;;11.88;79.30176;95631.83;;;;
2019/07/04 04:18:56;;;;;;;6;5.45;;;;;;;11.88;79.30176;95631.83;;;;
2019/07/04 04:19:57;;;;;;;6;5.45;;;;;;;11.88;79.30176;95631.83;;;;
2019/07/04 04:20:58;;;;;;;6;5.45;;;;;;;11.88;79.30176;95631.83;;;;
2019/07/04 04:21:59;;;;;;;6;5.45;;;;;;;11.88;79.30176;95631.83;;;;
2019/07/04 04:23:00;;;;;;;6;5.45;;;;;;;11.88;79.30176;95631.83;;;;
2019/07/04 04:24:01;;;;;;;6.2;5.299999;;;;;;;12.08;79.33789;95631.89;;;;
2019/07/04 04:25:02;;;;;;;6.2;5.299999;;;;;;;12.08;79.33789;95631.89;;;;
2019/07/04 04:26:04;;;;;;;6.2;5.299999;;;;;;;12.08;79.33789;95631.89;;;;
2019/07/04 04:27:05;;;;;;;6.2;5.299999;;;;;;;12.08;79.33789;95631.89;;;;
2019/07/04 04:28:06;;;;;;;6.2;5.299999;;;;;;;12.08;79.33789;95631.89;;;;
2019/07/04 04:29:07;;;;;;;6.2;5.299999;;;;;;;12.08;79.33789;95631.89;;;;
2019/07/04 04:30:08;;;;;;;6.2;5.299999;;;;;;;12.08;79.33789;95631.89;;;;
2019/07/04 04:31:11;;;;;;;6.2;5.299999;;;;;;;12.08;79.33789;95631.89;;;;
2019/07/04 04:32:12;;;;;;;6.2;5.299999;;;;;;;12.08;79.33789;95631.89;;;;
2019/07/04 04:33:13;;;;;;;6.2;5.299999;;;;;;;12.08;79.33789;95631.89;;;;
2019/07/04 04:34:14;;;;;;;6;5.400001;;;;;;;12.21;79.14551;95626.75;;;;
2019/07/04 04:35:15;;;;;;;6;5.400001;;;;;;;12.21;79.14551;95626.75;;;;
2019/07/04 04:36:16;;;;;;;6;5.400001;;;;;;;12.21;79.14551;95626.75;;;;
2019/07/04 04:37:18;;;;;;;6;5.400001;;;;;;;12.21;79.14551;95626.75;;;;
2019/07/04 04:38:19;;;;;;;6;5.400001;;;;;;;12.21;79.14551;95626.75;;;;
2019/07/04 04:39:20;;;;;;;6;5.400001;;;;;;;12.21;79.14551;95626.75;;;;
2019/07/04 04:40:21;;;;;;;6;5.400001;;;;;;;12.21;79.14551;95626.75;;;;
2019/07/04 04:41:23;;;;;;;6;5.400001;;;;;;;12.21;79.14551;95626.75;;;;
2019/07/04 04:42:24;;;;;;;6;5.400001;;;;;;;12.21;79.14551;95626.75;;;;
2019/07/04 04:43:26;;;;;;;6;5.400001;;;;;;;12.21;79.14551;95626.75;;;;
2019/07/04 04:44:27;;;;;;;6;5.400001;;;;;;;12.21;79.14551;95626.75;;;;
2019/07/04 04:45:28;;;;;;;5.699999;4.9;;;;;;;12.44;79.19922;95631.19;;;;
2019/07/04 04:46:29;;;;;;;5.699999;4.9;;;;;;;12.44;79.19922;95631.19;;;;
2019/07/04 04:47:30;;;;;;;5.699999;4.9;;;;;;;12.44;79.19922;95631.19;;;;
2019/07/04 04:48:31;;;;;;;5.699999;4.9;;;;;;;12.44;79.19922;95631.19;;;;
2019/07/04 04:49:32;;;;;;;5.699999;4.9;;;;;;;12.44;79.19922;95631.19;;;;
2019/07/04 04:50:33;;;;;;;5.699999;4.9;;;;;;;12.44;79.19922;95631.19;;;;
2019/07/04 04:51:34;;;;;;;5.699999;4.9;;;;;;;12.44;79.19922;95631.19;;;;
2019/07/04 04:52:35;;;;;;;5.699999;4.9;;;;;;;12.44;79.19922;95631.19;;;;
2019/07/04 04:53:36;;;;;;;5.699999;4.9;;;;;;;12.44;79.19922;95631.19;;;;
2019/07/04 04:54:38;;;;;;;5.699999;4.9;;;;;;;12.44;79.19922;95631.19;;;;
2019/07/04 04:55:39;;;;;;;6.15;4.699999;;;;;;;12.71;78.68945;95650.32;;;;
2019/07/04 04:56:40;;;;;;;6.15;4.699999;;;;;;;12.71;78.68945;95650.32;;;;
2019/07/04 04:57:41;;;;;;;6.15;4.699999;;;;;;;12.71;78.68945;95650.32;;;;
2019/07/04 04:58:42;;;;;;;6.15;4.699999;;;;;;;12.71;78.68945;95650.32;;;;
2019/07/04 04:59:43;;;;;;;6.15;4.699999;;;;;;;12.71;78.68945;95650.32;;;;
2019/07/04 05:00:44;;;;;;;6.15;4.699999;;;;;;;12.71;78.68945;95650.32;;;;
2019/07/04 05:01:45;;;;;;;6.15;4.699999;;;;;;;12.71;78.68945;95650.32;;;;
2019/07/04 05:02:46;;;;;;;6.15;4.699999;;;;;;;12.71;78.68945;95650.32;;;;
2019/07/04 05:03:47;;;;;;;6.15;4.699999;;;;;;;12.71;78.68945;95650.32;;;;
2019/07/04 05:04:48;;;;;;;6.15;4.699999;;;;;;;12.71;78.68945;95650.32;;;;
2019/07/04 05:05:49;;;;;;;6.15;4.699999;;;;;;;12.71;78.68945;95650.32;;;;
2019/07/04 05:06:51;;;;;;;6.35;4.5;;;;;;;13.19;78.38867;95664.42;;;;
2019/07/04 05:07:52;;;;;;;6.35;4.5;;;;;;;13.19;78.38867;95664.42;;;;
2019/07/04 05:08:53;;;;;;;6.35;4.5;;;;;;;13.19;78.38867;95664.42;;;;
2019/07/04 05:09:54;;;;;;;6.35;4.5;;;;;;;13.19;78.38867;95664.42;;;;
2019/07/04 05:10:55;;;;;;;6.35;4.5;;;;;;;13.19;78.38867;95664.42;;;;
2019/07/04 05:11:56;;;;;;;6.35;4.5;;;;;;;13.19;78.38867;95664.42;;;;
2019/07/04 05:12:57;;;;;;;6.35;4.5;;;;;;;13.19;78.38867;95664.42;;;;
2019/07/04 05:13:58;;;;;;;6.35;4.5;;;;;;;13.19;78.38867;95664.42;;;;
2019/07/04 05:14:59;;;;;;;6.35;4.5;;;;;;;13.19;78.38867;95664.42;;;;
2019/07/04 05:16:01;;;;;;;6.35;4.5;;;;;;;13.19;78.38867;95664.42;;;;
2019/07/04 05:17:02;;;;;;;5.3;4;;;;;;;13.73;77.39648;95664.71;;;;
2019/07/04 05:18:03;;;;;;;5.3;4;;;;;;;13.73;77.39648;95664.71;;;;
2019/07/04 05:19:04;;;;;;;5.3;4;;;;;;;13.73;77.39648;95664.71;;;;
2019/07/04 05:20:05;;;;;;;5.3;4;;;;;;;13.73;77.39648;95664.71;;;;
2019/07/04 05:21:06;;;;;;;5.3;4;;;;;;;13.73;77.39648;95664.71;;;;
2019/07/04 05:22:07;;;;;;;5.3;4;;;;;;;13.73;77.39648;95664.71;;;;
2019/07/04 05:23:09;;;;;;;5.3;4;;;;;;;13.73;77.39648;95664.71;;;;
2019/07/04 05:24:10;;;;;;;5.3;4;;;;;;;13.73;77.39648;95664.71;;;;
2019/07/04 05:25:11;;;;;;;5.3;4;;;;;;;13.73;77.39648;95664.71;;;;
2019/07/04 05:26:12;;;;;;;5.3;4;;;;;;;13.73;77.39648;95664.71;;;;
2019/07/04 05:27:13;;;;;;;8.200001;4.5;;;;;;;14.41;76.19141;95669.76;;;;
2019/07/04 05:28:14;;;;;;;8.200001;4.5;;;;;;;14.41;76.19141;95669.76;;;;
2019/07/04 05:29:15;;;;;;;8.200001;4.5;;;;;;;14.41;76.19141;95669.76;;;;
2019/07/04 05:30:17;;;;;;;8.200001;4.5;;;;;;;14.41;76.19141;95669.76;;;;
2019/07/04 05:31:32;;;;;;;8.200001;4.5;;;;;;;14.41;76.19141;95669.76;;;;
2019/07/04 05:32:33;;;;;;;8.200001;4.5;;;;;;;14.41;76.19141;95669.76;;;;
2019/07/04 05:33:34;;;;;;;8.200001;4.5;;;;;;;14.41;76.19141;95669.76;;;;
2019/07/04 05:34:36;;;;;;;8.200001;4.5;;;;;;;14.41;76.19141;95669.76;;;;
2019/07/04 05:35:37;;;;;;;8.200001;4.5;;;;;;;14.41;76.19141;95669.76;;;;